Time;durP1;ratioP1;P1;durP2;ratioP2;P2;SDS_P1;SDS_P2;PMS_P1;PMS_P2;Temp;Humidity;BMP_temperature;BMP_pressure;BME280_temperature;BME280_humidity;BME280_pressure;Samples;Min_cycle;Max_cycle;Signal;HPM_P1;HPM_P2
2024/04/15 00:00:19;;;;;;;2.40;2.20;;;;;;;18.64;74.58;156154.06;5500170;26;20316;-95
2024/04/15 00:02:47;;;;;;;3.23;2.87;;;;;;;18.63;74.19;156150.16;5495733;26;20468;-96
2024/04/15 00:05:16;;;;;;;3.67;2.57;;;;;;;18.63;73.95;156150.16;5493677;26;20220;-96
2024/04/15 00:07:44;;;;;;;2.67;2.47;;;;;;;18.63;73.56;156151.47;5522788;26;20456;-96
2024/04/15 00:10:10;;;;;;;3.60;2.47;;;;;;;18.63;73.26;156150.16;5492209;26;20440;-95
2024/04/15 00:12:38;;;;;;;4.20;2.80;;;;;;;18.61;74.00;156146.22;5491977;26;20526;-96
2024/04/15 00:15:05;;;;;;;3.07;2.60;;;;;;;18.61;73.64;156144.97;5492792;26;20294;-96
2024/04/15 00:17:33;;;;;;;3.50;2.67;;;;;;;18.58;74.23;156138.44;5493869;26;20448;-96
2024/04/15 00:19:59;;;;;;;2.77;2.43;;;;;;;18.57;74.54;156134.53;5492825;26;20518;-95
2024/04/15 00:22:30;;;;;;;3.23;2.67;;;;;;;18.55;74.44;156130.63;5492014;26;21139;-95
2024/04/15 00:24:56;;;;;;;2.63;2.33;;;;;;;18.56;74.23;156131.94;5491997;26;20250;-95
2024/04/15 00:27:24;;;;;;;3.77;2.90;;;;;;;18.56;74.07;156131.94;5491941;26;20456;-96
2024/04/15 00:29:50;;;;;;;2.80;2.60;;;;;;;18.57;73.37;156134.53;5492463;26;20246;-96
2024/04/15 00:32:18;;;;;;;3.23;2.93;;;;;;;18.54;73.79;156128.00;5522387;26;20460;-96
2024/04/15 00:34:44;;;;;;;3.97;3.10;;;;;;;18.52;73.50;156121.50;5523179;26;20232;-96
2024/04/15 00:37:12;;;;;;;3.50;3.07;;;;;;;18.48;74.01;156111.09;5521996;26;21017;-95
2024/04/15 00:39:40;;;;;;;3.53;3.17;;;;;;;18.44;73.58;156101.91;5491092;26;20254;-95
2024/04/15 00:42:09;;;;;;;4.73;3.10;;;;;;;18.43;73.17;156097.97;5493227;26;20444;-96
2024/04/15 00:44:35;;;;;;;2.80;2.50;;;;;;;18.36;73.46;156079.75;5494492;26;20476;-95
2024/04/15 00:47:03;;;;;;;3.23;2.93;;;;;;;18.34;72.21;156074.56;5494783;26;20860;-96
2024/04/15 00:49:32;;;;;;;2.87;2.57;;;;;;;18.29;71.70;156061.53;5494737;26;20258;-95
2024/04/15 00:52:01;;;;;;;2.73;2.30;;;;;;;18.23;71.71;156047.22;5493983;26;20456;-95
2024/04/15 00:54:28;;;;;;;3.03;2.73;;;;;;;18.20;71.67;156040.69;5494202;26;20954;-95
2024/04/15 00:56:59;;;;;;;3.80;3.07;;;;;;;18.16;72.42;156029.00;5524886;26;20503;-95
2024/04/15 00:59:26;;;;;;;3.60;3.10;;;;;;;18.14;72.19;156023.75;5494487;26;20448;-95
2024/04/15 01:01:54;;;;;;;6.00;3.17;;;;;;;18.12;72.02;156019.88;5525149;26;20464;-95
2024/04/15 01:04:20;;;;;;;3.10;2.37;;;;;;;18.06;72.62;156004.22;5494509;26;20538;-95
2024/04/15 01:06:49;;;;;;;3.17;2.30;;;;;;;18.06;72.93;156002.91;5494329;26;20452;-95
2024/04/15 01:09:14;;;;;;;3.20;2.73;;;;;;;18.01;73.25;155991.22;5525941;26;20469;-95
2024/04/15 01:11:43;;;;;;;3.10;2.80;;;;;;;17.99;73.12;155986.00;5497125;26;20449;-95
2024/04/15 01:14:11;;;;;;;3.50;3.20;;;;;;;17.95;73.58;155975.56;5494389;26;20228;-95
2024/04/15 01:16:40;;;;;;;4.03;3.00;;;;;;;17.94;73.94;155973.00;5493944;26;20441;-96
2024/04/15 01:19:06;;;;;;;3.10;2.50;;;;;;;17.93;74.04;155970.38;5494246;26;20456;-95
2024/04/15 01:21:34;;;;;;;3.60;3.10;;;;;;;17.96;73.94;155978.19;5493926;26;20483;-96
2024/04/15 01:24:03;;;;;;;2.93;2.67;;;;;;;17.93;74.04;155970.38;5494124;26;20220;-95
2024/04/15 01:26:31;;;;;;;5.70;2.40;;;;;;;17.91;74.53;155963.88;5493586;26;20448;-94
2024/04/15 01:28:58;;;;;;;4.13;3.03;;;;;;;17.90;74.43;155962.56;5494069;26;20571;-95
2024/04/15 01:31:26;;;;;;;3.37;3.07;;;;;;;17.87;74.78;155954.72;5493728;26;20494;-95
2024/04/15 01:33:52;;;;;;;3.13;2.80;;;;;;;17.85;74.91;155949.53;5493591;26;20861;-95
2024/04/15 01:36:20;;;;;;;2.63;2.43;;;;;;;17.81;74.46;155939.16;5493924;26;20437;-94
2024/04/15 01:38:45;;;;;;;3.07;2.50;;;;;;;17.78;74.21;155930.00;5493890;26;20554;-95
2024/04/15 01:41:16;;;;;;;3.40;2.37;;;;;;;17.72;74.67;155914.38;5493451;26;20436;-96
2024/04/15 01:43:42;;;;;;;2.43;2.23;;;;;;;17.65;74.99;155897.47;5493375;26;20236;-95
2024/04/15 01:46:10;;;;;;;3.37;2.50;;;;;;;17.59;74.79;155881.84;5493290;26;20440;-95
2024/04/15 01:48:36;;;;;;;5.03;2.87;;;;;;;17.50;75.17;155858.38;5493370;26;20254;-95
2024/04/15 01:51:04;;;;;;;2.77;2.23;;;;;;;17.48;75.51;155853.16;5493505;26;20440;-95
2024/04/15 01:53:30;;;;;;;2.90;2.40;;;;;;;17.42;75.49;155838.81;5493665;26;20323;-95
2024/04/15 01:55:58;;;;;;;3.43;2.43;;;;;;;17.37;75.75;155825.81;5493450;26;20441;-95
2024/04/15 01:58:27;;;;;;;4.97;2.47;;;;;;;17.29;75.64;155805.00;5482650;26;20241;-96
2024/04/15 02:01:04;;;;;;;3.03;2.37;;;;;;;17.27;75.57;155798.47;5486885;26;20446;-94
2024/04/15 02:03:30;;;;;;;2.93;2.13;;;;;;;17.27;74.98;155799.78;5457036;26;20450;-95
2024/04/15 02:05:58;;;;;;;3.70;2.67;;;;;;;17.26;73.76;155795.91;5457177;26;20542;-95
2024/04/15 02:08:24;;;;;;;4.00;2.80;;;;;;;17.21;74.05;155782.91;5456741;26;20271;-95
2024/04/15 02:10:52;;;;;;;2.50;2.20;;;;;;;17.16;74.17;155771.16;5456636;26;20446;-95
2024/04/15 02:13:18;;;;;;;2.43;2.10;;;;;;;17.17;73.81;155772.47;5456779;26;20316;-95
2024/04/15 02:15:49;;;;;;;2.30;1.90;;;;;;;17.16;73.28;155769.84;5456302;26;20458;-95
2024/04/15 02:18:15;;;;;;;2.17;1.97;;;;;;;17.11;72.34;155758.16;5456912;26;20225;-95
2024/04/15 02:20:44;;;;;;;3.67;2.30;;;;;;;17.10;72.84;155754.25;5457050;26;20450;-95
2024/04/15 02:23:09;;;;;;;2.57;2.10;;;;;;;17.07;72.39;155746.44;5456543;26;20706;-93
2024/04/15 02:25:38;;;;;;;2.50;2.30;;;;;;;17.06;72.84;155745.13;5456334;26;20517;-95
2024/04/15 02:28:04;;;;;;;4.30;1.97;;;;;;;17.08;72.17;155750.34;5456528;26;20229;-95
2024/04/15 02:30:33;;;;;;;2.20;1.93;;;;;;;17.05;72.04;155743.81;5456287;26;20996;-96
2024/04/15 02:33:01;;;;;;;4.27;2.00;;;;;;;17.04;71.86;155739.94;5456256;26;20478;-94
2024/04/15 02:35:29;;;;;;;2.27;1.50;;;;;;;17.03;71.32;155737.31;5486632;26;20559;-95
2024/04/15 02:37:55;;;;;;;3.00;2.03;;;;;;;17.03;70.68;155738.63;5456230;26;20453;-95
2024/04/15 02:40:23;;;;;;;3.40;2.00;;;;;;;17.00;70.46;155730.81;5456173;26;20517;-94
2024/04/15 02:42:49;;;;;;;2.43;2.03;;;;;;;17.02;70.25;155736.00;5456399;26;20282;-93
2024/04/15 02:45:18;;;;;;;2.80;2.13;;;;;;;17.02;69.82;155734.75;5455884;26;20438;-94
2024/04/15 02:47:43;;;;;;;2.83;1.97;;;;;;;17.02;70.04;155736.00;5456355;26;20327;-94
2024/04/15 02:50:14;;;;;;;2.33;2.10;;;;;;;17.01;70.36;155732.13;5486544;26;20462;-95
2024/04/15 02:52:41;;;;;;;2.37;1.80;;;;;;;16.99;70.57;155728.25;5455822;26;20232;-95
2024/04/15 02:55:09;;;;;;;4.07;1.83;;;;;;;16.95;70.85;155717.81;5455510;26;20461;-95
2024/04/15 02:57:35;;;;;;;4.57;1.97;;;;;;;16.96;70.94;155720.44;5456122;26;20462;-94
2024/04/15 03:00:03;;;;;;;4.73;2.23;;;;;;;16.94;71.21;155713.94;5456363;26;20481;-93
2024/04/15 03:02:29;;;;;;;2.10;1.77;;;;;;;16.92;71.41;155708.69;5456441;26;20237;-95
2024/04/15 03:04:58;;;;;;;2.30;2.03;;;;;;;16.89;71.60;155700.94;5455558;26;20442;-94
2024/04/15 03:07:26;;;;;;;3.57;2.30;;;;;;;16.84;72.01;155687.88;5456329;26;20240;-94
2024/04/15 03:09:55;;;;;;;2.83;2.30;;;;;;;16.81;71.76;155681.38;5486517;26;20508;-93
2024/04/15 03:12:21;;;;;;;6.37;2.37;;;;;;;16.82;71.92;155684.00;5460983;26;20573;-92
2024/04/15 03:14:49;;;;;;;3.30;2.47;;;;;;;16.79;72.12;155676.19;5529955;26;20444;-94
2024/04/15 03:17:15;;;;;;;3.00;2.10;;;;;;;16.81;72.10;155681.38;5524075;26;20223;-93
2024/04/15 03:19:43;;;;;;;3.83;2.70;;;;;;;16.79;72.27;155674.88;5524840;26;20488;-94
2024/04/15 03:22:09;;;;;;;4.50;2.03;;;;;;;16.73;72.54;155660.53;5494044;26;20224;-94
2024/04/15 03:24:40;;;;;;;4.03;2.10;;;;;;;16.71;72.91;155654.03;5491939;26;20444;-94
2024/04/15 03:27:06;;;;;;;2.83;2.00;;;;;;;16.72;72.99;155656.66;5492620;26;20228;-95
2024/04/15 03:29:34;;;;;;;3.23;2.27;;;;;;;16.72;73.24;155656.66;5492290;26;20495;-94
2024/04/15 03:32:00;;;;;;;4.03;2.30;;;;;;;16.74;72.36;155663.16;5491808;26;20232;-94
2024/04/15 03:34:28;;;;;;;2.93;2.20;;;;;;;16.73;72.46;155660.53;5491870;26;20583;-94
2024/04/15 03:36:57;;;;;;;2.63;2.20;;;;;;;16.70;72.46;155652.78;5491740;26;20275;-94
2024/04/15 03:39:25;;;;;;;4.87;2.80;;;;;;;16.69;72.62;155650.16;5491866;26;20537;-95
2024/04/15 03:41:56;;;;;;;2.10;1.80;;;;;;;16.66;72.77;155642.34;5522815;26;20541;-94
2024/04/15 03:44:22;;;;;;;2.90;2.00;;;;;;;16.65;72.65;155639.78;5491614;26;20441;-94
2024/04/15 03:46:51;;;;;;;2.50;2.00;;;;;;;16.77;72.56;155670.97;5491224;26;20452;-95
2024/04/15 03:49:16;;;;;;;4.40;2.53;;;;;;;16.56;72.87;155615.03;5491841;26;20242;-95
2024/04/15 03:51:45;;;;;;;3.23;2.50;;;;;;;16.53;73.09;155608.53;5522030;26;20461;-95
2024/04/15 03:54:10;;;;;;;2.03;1.80;;;;;;;16.49;73.40;155596.78;5491193;26;20224;-95
2024/04/15 03:56:38;;;;;;;2.97;2.20;;;;;;;16.47;73.31;155592.88;5521943;26;20871;-95
2024/04/15 03:59:07;;;;;;;2.73;2.20;;;;;;;16.46;72.96;155590.28;5491478;26;20220;-95
2024/04/15 04:01:35;;;;;;;3.80;2.63;;;;;;;16.41;72.92;155577.28;5491085;26;20433;-94
2024/04/15 04:04:01;;;;;;;3.17;2.87;;;;;;;16.40;72.76;155574.66;5522277;26;20456;-95
2024/04/15 04:06:30;;;;;;;5.40;2.17;;;;;;;16.40;73.02;155574.66;5456166;26;20996;-95
2024/04/15 04:08:58;;;;;;;2.43;2.03;;;;;;;16.40;73.17;155574.66;5455051;26;20261;-95
2024/04/15 04:11:27;;;;;;;3.57;2.70;;;;;;;16.40;72.46;155574.66;5485566;26;20450;-95
2024/04/15 04:13:53;;;;;;;3.97;1.93;;;;;;;16.38;72.42;155569.47;5485445;26;20450;-95
2024/04/15 04:16:24;;;;;;;5.90;2.20;;;;;;;16.39;72.49;155572.06;5456577;26;20482;-93
2024/04/15 04:18:50;;;;;;;3.37;2.03;;;;;;;16.36;72.29;155565.56;5459515;26;20224;-96
2024/04/15 04:21:18;;;;;;;2.83;2.37;;;;;;;16.34;72.53;155559.06;5489103;26;20823;-95
2024/04/15 04:23:44;;;;;;;3.23;2.30;;;;;;;16.24;72.63;155534.34;5489063;26;20240;-95
2024/04/15 04:26:12;;;;;;;3.23;2.60;;;;;;;16.20;72.82;155522.66;5457997;26;20494;-94
2024/04/15 04:28:38;;;;;;;2.83;2.50;;;;;;;16.18;72.95;155517.44;5489185;26;20229;-96
2024/04/15 04:31:07;;;;;;;2.63;2.13;;;;;;;16.16;73.08;155512.25;5488988;26;20446;-95
2024/04/15 04:33:35;;;;;;;5.10;2.20;;;;;;;16.12;72.94;155501.88;5488314;26;20241;-94
2024/04/15 04:36:04;;;;;;;2.20;1.80;;;;;;;16.14;72.84;155507.06;5458353;26;20438;-95
2024/04/15 04:38:29;;;;;;;2.50;2.10;;;;;;;16.12;72.74;155501.88;5458914;26;20509;-95
2024/04/15 04:40:58;;;;;;;3.47;2.30;;;;;;;16.10;72.96;155496.63;5458444;26;20564;-93
2024/04/15 04:43:24;;;;;;;2.90;2.10;;;;;;;16.07;72.57;155490.13;5488653;26;20229;-95
2024/04/15 04:45:53;;;;;;;5.40;2.60;;;;;;;16.04;73.00;155481.06;5488219;26;20541;-94
2024/04/15 04:48:19;;;;;;;2.70;2.47;;;;;;;16.06;73.09;155486.25;5458169;26;20225;-94
2024/04/15 04:50:50;;;;;;;4.73;2.80;;;;;;;16.02;72.46;155475.88;5458513;26;20827;-95
2024/04/15 04:53:16;;;;;;;2.43;2.03;;;;;;;16.00;72.97;155470.63;5457804;26;20229;-94
2024/04/15 04:55:44;;;;;;;2.70;1.93;;;;;;;15.96;71.82;155460.25;5488771;26;20529;-95
2024/04/15 04:58:10;;;;;;;2.53;2.10;;;;;;;15.93;71.24;155453.75;5457842;26;20229;-94
2024/04/15 05:00:38;;;;;;;3.03;2.13;;;;;;;15.95;71.00;155458.94;5488890;26;20765;-95
2024/04/15 05:03:04;;;;;;;1.80;1.60;;;;;;;15.94;71.22;155455.06;5457628;26;20228;-87
2024/04/15 05:05:35;;;;;;;2.00;1.63;;;;;;;15.94;71.21;155455.06;5490051;26;20472;-93
2024/04/15 05:08:05;;;;;;;3.20;1.63;;;;;;;15.93;70.95;155452.44;5482544;26;20243;-96
2024/04/15 05:10:34;;;;;;;2.27;1.40;;;;;;;15.90;70.62;155445.94;5494106;26;20476;-96
2024/04/15 05:13:00;;;;;;;2.67;1.70;;;;;;;15.87;70.85;155436.81;5496455;26;20497;-94
2024/04/15 05:15:29;;;;;;;2.13;1.50;;;;;;;15.82;70.10;155426.44;5520107;26;20474;-94
2024/04/15 05:17:55;;;;;;;2.37;1.87;;;;;;;15.83;70.79;155429.03;5494390;26;20248;-94
2024/04/15 05:20:23;;;;;;;2.40;1.87;;;;;;;15.83;71.37;155427.75;5494294;26;20489;-94
2024/04/15 05:22:49;;;;;;;3.20;1.60;;;;;;;15.86;71.80;155434.25;5495008;26;20224;-95
2024/04/15 05:25:20;;;;;;;3.23;2.20;;;;;;;15.89;72.13;155442.00;5494708;26;20452;-95
2024/04/15 05:36:52;;;;;;;2.80;1.90;;;;;;;15.90;75.78;155444.63;5340290;21;20506;-90
2024/04/15 05:39:18;;;;;;;2.27;2.00;;;;;;;15.83;75.23;155429.03;5270235;27;20486;-96
2024/04/15 05:42:13;;;;;;;2.80;1.87;;;;;;;15.81;76.25;155423.81;5307277;27;20556;-96
2024/04/15 05:44:41;;;;;;;2.40;1.80;;;;;;;15.77;75.82;155413.47;5299542;27;20531;-96
2024/04/15 05:47:10;;;;;;;2.13;1.60;;;;;;;15.75;75.70;155408.22;5228308;27;20528;-96
2024/04/15 05:49:37;;;;;;;3.20;1.70;;;;;;;15.73;75.62;155403.03;5251498;27;20495;-96
2024/04/15 05:52:06;;;;;;;4.20;2.10;;;;;;;15.73;75.64;155403.03;5251859;27;20462;-96
2024/04/15 05:54:32;;;;;;;2.70;1.87;;;;;;;15.70;75.47;155393.97;5280111;27;20490;-96
2024/04/15 05:57:01;;;;;;;2.13;1.40;;;;;;;15.67;74.61;155386.16;5251500;27;20463;-96
2024/04/15 05:59:30;;;;;;;2.50;1.50;;;;;;;15.65;74.86;155382.22;5251856;27;20231;-96
2024/04/15 06:01:59;;;;;;;2.23;1.43;;;;;;;15.63;74.57;155377.03;5257546;27;20511;-96
2024/04/15 06:04:26;;;;;;;3.10;1.50;;;;;;;15.61;74.19;155370.53;5253162;27;20450;-95
2024/04/15 06:06:54;;;;;;;1.83;1.50;;;;;;;15.61;73.16;155371.84;5225791;27;20578;-96
2024/04/15 06:09:20;;;;;;;2.57;1.40;;;;;;;15.61;72.32;155370.53;5226666;27;20443;-96
2024/04/15 06:11:49;;;;;;;2.20;1.47;;;;;;;15.59;72.14;155365.34;5287804;27;20506;-96
2024/04/15 06:14:15;;;;;;;2.30;1.30;;;;;;;15.58;72.68;155364.03;5232478;27;20438;-96
2024/04/15 06:16:49;;;;;;;1.70;1.40;;;;;;;15.57;72.05;155361.44;5282424;27;20501;-96
2024/04/15 06:19:15;;;;;;;4.80;1.60;;;;;;;15.58;70.92;155364.03;5256414;27;20594;-95
2024/04/15 06:21:44;;;;;;;3.30;1.50;;;;;;;15.57;70.31;155361.44;5228043;27;20467;-94
2024/04/15 06:24:10;;;;;;;2.40;1.70;;;;;;;15.59;70.59;155366.66;5256728;27;20235;-94
2024/04/15 06:26:39;;;;;;;1.80;1.20;;;;;;;15.59;70.59;155366.66;5260326;27;20447;-95
2024/04/15 06:29:05;;;;;;;3.10;1.60;;;;;;;15.57;71.04;155361.44;5259439;27;20227;-96
2024/04/15 06:31:33;;;;;;;2.33;1.43;;;;;;;15.54;70.82;155352.38;5235679;27;20501;-96
2024/04/15 06:34:02;;;;;;;1.87;1.50;;;;;;;15.54;70.92;155352.38;5264755;27;20219;-94
2024/04/15 06:36:31;;;;;;;2.50;1.83;;;;;;;15.53;71.17;155351.06;5266597;27;20486;-95
2024/04/15 06:38:57;;;;;;;3.87;1.80;;;;;;;15.50;71.36;155343.25;5290299;27;20438;-94
2024/04/15 06:41:25;;;;;;;2.77;2.10;;;;;;;15.44;71.38;155327.59;5263299;27;20547;-94
2024/04/15 06:43:51;;;;;;;2.47;1.70;;;;;;;15.42;71.60;155321.09;5296438;27;20497;-95
2024/04/15 06:46:20;;;;;;;3.17;1.70;;;;;;;15.35;71.50;155302.91;5273002;27;20448;-94
2024/04/15 06:48:45;;;;;;;2.73;2.00;;;;;;;15.30;71.16;155291.22;5271678;27;20989;-95
2024/04/15 06:51:17;;;;;;;3.00;1.67;;;;;;;15.32;71.82;155296.41;5269788;27;20493;-94
2024/04/15 06:53:43;;;;;;;3.80;1.93;;;;;;;15.30;71.92;155291.22;5269080;27;20234;-94
2024/04/15 06:56:12;;;;;;;2.50;1.50;;;;;;;15.31;72.17;155293.78;5265749;27;20461;-93
2024/04/15 06:58:38;;;;;;;3.70;1.97;;;;;;;15.29;71.51;155287.31;5292070;27;20261;-95
2024/04/15 07:01:06;;;;;;;2.43;1.83;;;;;;;15.29;72.50;155288.63;5262487;27;20490;-94
2024/04/15 07:03:32;;;;;;;3.93;1.77;;;;;;;15.29;72.67;155288.63;5228861;27;20257;-92
2024/04/15 07:06:00;;;;;;;2.50;1.87;;;;;;;15.25;72.76;155279.50;5258119;27;20446;-93
2024/04/15 07:08:28;;;;;;;1.63;1.47;;;;;;;15.27;72.28;155282.13;5225260;27;20282;-94
2024/04/15 07:10:57;;;;;;;2.73;1.97;;;;;;;15.26;72.57;155280.81;5276804;27;20507;-94
2024/04/15 07:13:22;;;;;;;1.60;1.43;;;;;;;15.21;72.21;155269.13;5220060;27;20500;-94
2024/04/15 07:15:51;;;;;;;3.27;1.50;;;;;;;15.23;72.29;155274.31;5306026;27;20520;-95
2024/04/15 07:18:16;;;;;;;2.00;1.70;;;;;;;15.22;72.21;155271.69;5281151;27;20273;-94
2024/04/15 07:20:47;;;;;;;4.07;2.43;;;;;;;15.22;72.13;155270.44;5309576;27;20461;-94
2024/04/15 07:23:12;;;;;;;3.80;2.20;;;;;;;15.20;72.47;155265.19;5280556;27;20258;-94
2024/04/15 07:25:43;;;;;;;5.23;1.60;;;;;;;15.17;72.52;155258.72;5282324;27;20859;-94
2024/04/15 07:28:09;;;;;;;2.83;1.60;;;;;;;15.11;73.27;155241.84;5283071;27;20322;-95
2024/04/15 07:30:37;;;;;;;2.60;2.07;;;;;;;15.08;72.96;155234.03;5283667;27;20472;-94
2024/04/15 07:33:04;;;;;;;2.87;2.00;;;;;;;15.06;73.22;155230.09;5283365;27;20238;-95
2024/04/15 07:35:36;;;;;;;3.00;2.00;;;;;;;15.09;73.16;155236.66;5283620;27;20553;-95
2024/04/15 07:38:01;;;;;;;2.57;2.07;;;;;;;15.08;72.76;155234.03;5261841;27;20513;-94
2024/04/15 07:40:30;;;;;;;2.83;2.17;;;;;;;15.16;73.01;155254.81;5293614;27;20449;-95
2024/04/15 07:42:58;;;;;;;2.10;1.80;;;;;;;15.20;72.58;155266.50;5287528;27;20473;-94
2024/04/15 07:45:26;;;;;;;3.07;1.80;;;;;;;15.26;71.93;155280.81;5312334;27;20457;-95
2024/04/15 07:47:52;;;;;;;5.17;2.60;;;;;;;15.29;71.52;155288.63;5283599;27;20524;-95
2024/04/15 07:50:21;;;;;;;4.40;2.70;;;;;;;15.27;71.13;155284.69;5286410;27;20508;-95
2024/04/15 07:52:46;;;;;;;3.73;2.13;;;;;;;15.24;71.51;155275.63;5316698;27;20778;-94
2024/04/15 07:55:15;;;;;;;3.43;2.43;;;;;;;15.25;71.62;155279.50;5287910;27;20500;-94
2024/04/15 07:57:40;;;;;;;3.00;2.53;;;;;;;15.27;71.11;155283.44;5288211;27;20273;-95
2024/04/15 08:00:12;;;;;;;3.43;2.30;;;;;;;15.27;71.38;155284.69;5258234;27;20448;-95
2024/04/15 08:02:38;;;;;;;4.17;3.17;;;;;;;15.30;70.91;155291.22;5313120;27;20260;-95
2024/04/15 08:05:07;;;;;;;2.40;2.20;;;;;;;15.32;71.09;155296.41;5256155;27;20457;-94
2024/04/15 08:07:33;;;;;;;2.90;2.40;;;;;;;15.32;71.76;155295.09;5284285;27;20278;-95
2024/04/15 08:10:01;;;;;;;5.40;2.50;;;;;;;15.30;72.05;155291.22;5284177;27;20541;-95
2024/04/15 08:12:27;;;;;;;3.77;2.83;;;;;;;15.27;72.44;155284.69;5313010;27;20678;-95
2024/04/15 08:14:56;;;;;;;3.40;2.40;;;;;;;15.23;72.33;155273.00;5313721;27;20452;-95
2024/04/15 08:17:24;;;;;;;3.37;2.70;;;;;;;15.31;74.94;155293.78;5283780;27;20468;-94
2024/04/15 08:19:53;;;;;;;3.17;2.50;;;;;;;15.32;74.39;155296.41;5256098;27;20497;-96
2024/04/15 08:22:20;;;;;;;4.40;2.70;;;;;;;15.28;74.18;155286.00;5285456;27;20460;-96
2024/04/15 08:24:50;;;;;;;4.40;2.90;;;;;;;15.31;76.54;155293.78;5319566;27;20449;-96
2024/04/15 08:27:20;;;;;;;4.27;2.53;;;;;;;15.38;77.37;155310.72;5294969;27;20441;-96
2024/04/15 08:29:48;;;;;;;4.23;3.30;;;;;;;15.41;78.07;155318.53;5291168;27;20505;-96
2024/04/15 08:32:17;;;;;;;5.23;2.90;;;;;;;15.43;78.16;155325.00;5296598;27;20233;-96
2024/04/15 08:49:18;;;;;;;5.87;3.60;;;;;;;15.55;80.79;155356.25;6060112;21;20502;-96
2024/04/15 08:51:47;;;;;;;4.53;3.30;;;;;;;15.58;80.63;155364.03;5284920;26;20589;-96
2024/04/15 08:54:18;;;;;;;3.60;3.30;;;;;;;15.59;79.45;155366.66;5360080;21;20566;-96
2024/04/15 08:56:46;;;;;;;6.30;3.60;;;;;;;15.64;79.74;155378.34;5323168;27;20436;-96
2024/04/15 08:59:19;;;;;;;6.10;3.03;;;;;;;15.61;79.09;155370.53;5326195;27;20453;-96
2024/04/15 09:01:45;;;;;;;6.90;3.63;;;;;;;15.62;79.08;155374.41;5294785;27;20509;-96
2024/04/15 09:10:01;;;;;;;4.10;2.80;;;;;;;15.71;79.28;155397.84;6387054;21;20606;-95
2024/04/15 09:12:35;;;;;;;3.63;3.30;;;;;;;15.84;79.70;155431.63;5354902;22;20618;-96
2024/04/15 09:15:04;;;;;;;5.50;3.50;;;;;;;15.97;79.12;155462.81;5288589;27;20450;-96
2024/04/15 09:17:30;;;;;;;4.73;3.83;;;;;;;16.12;79.26;155501.88;5280012;27;20957;-95
2024/04/15 09:19:59;;;;;;;6.80;3.70;;;;;;;16.24;78.67;155534.34;5279491;27;20496;-95
2024/04/15 09:22:35;;;;;;;4.17;2.93;;;;;;;16.36;76.85;155564.28;5307388;27;20466;-95
2024/04/15 09:25:11;;;;;;;4.00;3.17;;;;;;;16.42;75.37;155579.88;5250962;27;20458;-96
2024/04/15 09:27:41;;;;;;;5.27;3.30;;;;;;;16.42;75.56;155579.88;5249404;27;20466;-96
2024/04/15 09:30:10;;;;;;;5.80;3.37;;;;;;;16.41;75.79;155578.56;5249336;27;20489;-94
2024/04/15 09:32:42;;;;;;;4.17;3.23;;;;;;;16.47;76.14;155592.88;5276672;27;20623;-95
2024/04/15 09:35:13;;;;;;;5.17;3.53;;;;;;;16.54;76.06;155611.16;5265777;27;20506;-94
2024/04/15 09:37:39;;;;;;;4.83;4.00;;;;;;;16.61;76.17;155629.34;5244152;27;20475;-94
2024/04/15 09:40:14;;;;;;;3.50;2.80;;;;;;;16.67;75.01;155643.66;5272768;27;20592;-93
2024/04/15 09:42:40;;;;;;;3.93;3.00;;;;;;;16.69;74.34;155650.16;5261714;27;20262;-92
2024/04/15 09:45:11;;;;;;;5.10;3.30;;;;;;;16.76;74.78;155668.38;5266441;27;20603;-94
2024/04/15 09:47:40;;;;;;;5.70;3.47;;;;;;;16.84;73.83;155689.19;5268072;27;20981;-93
2024/04/15 09:50:08;;;;;;;3.80;3.00;;;;;;;16.91;73.51;155707.44;5264607;27;20490;-94
2024/04/15 09:52:39;;;;;;;2.83;2.37;;;;;;;16.98;72.53;155725.63;5288097;27;20486;-94
2024/04/15 09:55:11;;;;;;;3.07;2.20;;;;;;;17.03;72.40;155737.31;5262039;27;20486;-94
2024/04/15 09:57:39;;;;;;;3.90;2.53;;;;;;;17.13;71.62;155762.06;5259149;27;20578;-94
2024/04/15 10:00:12;;;;;;;3.90;2.70;;;;;;;17.18;70.39;155776.41;5271064;27;20523;-94
2024/04/15 10:02:48;;;;;;;2.23;1.80;;;;;;;17.21;69.90;155782.91;5261021;27;20494;-95
2024/04/15 10:05:22;;;;;;;3.67;2.93;;;;;;;17.23;69.18;155788.09;5259416;27;20579;-94
2024/04/15 10:07:51;;;;;;;4.47;2.17;;;;;;;17.30;69.04;155806.28;5255599;27;20527;-95
2024/04/15 10:10:22;;;;;;;4.00;2.30;;;;;;;17.35;68.97;155819.31;5268107;27;20466;-95
2024/04/15 10:12:48;;;;;;;5.27;2.53;;;;;;;17.39;68.40;155829.75;5274778;27;20531;-95
2024/04/15 10:15:17;;;;;;;2.47;2.20;;;;;;;17.46;67.84;155847.94;5246133;27;20511;-95
2024/04/15 10:17:54;;;;;;;4.10;2.27;;;;;;;17.52;67.72;155864.91;5264561;27;21004;-95
2024/04/15 10:20:22;;;;;;;5.13;2.60;;;;;;;17.61;67.40;155888.34;5260531;27;20501;-94
2024/04/15 10:22:48;;;;;;;2.40;2.07;;;;;;;17.70;67.18;155910.50;5268908;27;20466;-94
2024/04/15 10:25:16;;;;;;;2.80;1.90;;;;;;;17.77;66.23;155927.38;5241455;27;20472;-94
2024/04/15 10:27:44;;;;;;;2.80;2.07;;;;;;;17.85;66.07;155949.53;5250276;27;20253;-93
2024/04/15 10:30:19;;;;;;;4.60;2.10;;;;;;;17.94;66.49;155973.00;5285108;27;20534;-95
2024/04/15 10:32:45;;;;;;;3.40;2.40;;;;;;;18.05;65.82;156001.66;5266046;27;20482;-94
2024/04/15 10:35:23;;;;;;;3.47;2.07;;;;;;;18.10;64.89;156014.66;5263562;27;20574;-93
2024/04/15 10:37:50;;;;;;;3.57;2.00;;;;;;;18.12;65.37;156019.88;5263484;27;20243;-92
2024/04/15 10:40:18;;;;;;;2.60;2.40;;;;;;;18.12;64.70;156019.88;5267735;27;20475;-93
2024/04/15 10:42:46;;;;;;;4.60;2.13;;;;;;;18.07;63.88;156005.53;5262524;27;20482;-93
2024/04/15 10:45:20;;;;;;;5.13;2.43;;;;;;;18.01;64.49;155991.22;5246802;27;20709;-94
2024/04/15 10:47:45;;;;;;;3.73;2.23;;;;;;;17.98;64.40;155982.06;5243306;27;20572;-94
2024/04/15 10:50:13;;;;;;;2.47;2.27;;;;;;;17.92;64.86;155967.78;5241844;27;20464;-95
2024/04/15 10:52:39;;;;;;;3.00;2.00;;;;;;;17.84;64.67;155946.97;5241934;27;20236;-96
2024/04/15 10:55:08;;;;;;;3.03;2.20;;;;;;;17.83;65.41;155944.34;5241767;27;21031;-95
2024/04/15 10:57:33;;;;;;;2.17;1.77;;;;;;;17.79;65.06;155932.63;5241406;27;20302;-94
2024/04/15 11:00:05;;;;;;;2.27;1.97;;;;;;;17.74;65.55;155919.63;5269612;27;20511;-94
2024/04/15 11:02:30;;;;;;;3.00;2.10;;;;;;;17.72;65.96;155915.69;5241143;27;20236;-96
2024/04/15 11:05:00;;;;;;;3.33;2.27;;;;;;;17.67;66.14;155902.69;5241409;27;20494;-95
2024/04/15 11:07:25;;;;;;;2.77;2.50;;;;;;;17.63;66.16;155893.53;5241424;27;20248;-96
2024/04/15 11:09:54;;;;;;;3.07;2.40;;;;;;;17.60;66.22;155884.47;5242013;27;20836;-95
2024/04/15 11:12:19;;;;;;;2.37;2.00;;;;;;;17.59;66.57;155883.16;5241736;27;20771;-95
2024/04/15 11:14:55;;;;;;;6.53;2.60;;;;;;;17.63;66.65;155892.28;5269565;27;20467;-96
2024/04/15 11:17:23;;;;;;;2.70;1.90;;;;;;;17.63;67.11;155893.53;5213523;27;20697;-96
2024/04/15 11:20:00;;;;;;;3.30;2.23;;;;;;;17.64;66.36;155894.84;5260914;27;20912;-95
2024/04/15 11:22:26;;;;;;;2.37;1.87;;;;;;;17.69;66.70;155907.88;5246797;27;20502;-95
2024/04/15 11:24:54;;;;;;;3.80;2.00;;;;;;;17.72;66.06;155915.69;5246043;27;20594;-96
2024/04/15 11:27:20;;;;;;;2.67;2.03;;;;;;;17.75;66.71;155923.50;5276245;27;20239;-95
2024/04/15 11:29:49;;;;;;;3.07;2.10;;;;;;;17.78;67.73;155930.00;5268606;27;20885;-95
2024/04/15 11:32:15;;;;;;;5.10;2.40;;;;;;;17.79;68.40;155933.91;5242762;27;20549;-95
2024/04/15 11:34:48;;;;;;;3.03;2.10;;;;;;;17.79;68.65;155933.91;5243081;27;20811;-96
2024/04/15 11:37:14;;;;;;;5.00;2.10;;;;;;;17.72;68.78;155915.69;5241144;27;20798;-96
2024/04/15 11:39:42;;;;;;;3.50;2.63;;;;;;;17.69;70.21;155906.56;5269634;27;20514;-95
2024/04/15 11:42:09;;;;;;;3.40;2.47;;;;;;;17.69;71.67;155906.56;5241444;27;20668;-96
2024/04/15 11:44:38;;;;;;;2.90;2.50;;;;;;;17.66;72.92;155900.06;5217186;27;20471;-96
2024/04/15 11:47:14;;;;;;;4.47;2.50;;;;;;;17.61;74.01;155887.03;5472756;21;20278;-96
2024/04/15 11:49:43;;;;;;;5.27;2.40;;;;;;;17.58;75.25;155879.22;5290126;27;20553;-96
2024/04/15 11:52:11;;;;;;;3.53;2.30;;;;;;;17.49;76.66;155855.78;5272486;27;20538;-92
2024/04/15 11:54:40;;;;;;;4.40;2.43;;;;;;;17.43;77.35;155841.44;5270426;27;20869;-91
2024/04/15 11:57:05;;;;;;;5.33;2.53;;;;;;;17.38;78.62;155827.13;5263393;27;20478;-91